Time;durP1;ratioP1;P1;durP2;ratioP2;P2;SDS_P1;SDS_P2;PMS_P1;PMS_P2;Temp;Humidity;BMP_temperature;BMP_pressure;BME280_temperature;BME280_humidity;BME280_pressure;Samples;Min_cycle;Max_cycle;Signal;HPM_P1;HPM_P2
2021/06/23 00:00:50;;;;;;;12.30;5.22;;;12.50;85.10;;;;;;4995627;28;20054;-54
2021/06/23 00:03:16;;;;;;;12.65;5.57;;;12.50;85.20;;;;;;4995768;28;20072;-54
2021/06/23 00:05:42;;;;;;;13.75;5.00;;;12.40;84.90;;;;;;5007184;28;20391;-52
2021/06/23 00:08:07;;;;;;;11.32;5.60;;;12.40;85.20;;;;;;5003716;28;20046;-52
2021/06/23 00:10:33;;;;;;;15.88;5.32;;;12.40;85.30;;;;;;5002597;28;20042;-51
2021/06/23 00:13:07;;;;;;;11.32;5.10;;;12.40;85.40;;;;;;4976561;28;20053;-52
2021/06/23 00:15:33;;;;;;;7.03;4.90;;;12.40;85.40;;;;;;4996585;28;20073;-51
2021/06/23 00:18:00;;;;;;;15.30;5.47;;;12.40;85.30;;;;;;4994877;28;20439;-55
2021/06/23 00:20:25;;;;;;;15.55;5.00;;;12.40;85.30;;;;;;4995210;28;20050;-51
2021/06/23 00:22:52;;;;;;;14.80;5.18;;;12.40;85.20;;;;;;4998453;28;20554;-53
2021/06/23 00:25:18;;;;;;;13.48;5.40;;;12.40;85.20;;;;;;4998725;28;20116;-50
2021/06/23 00:27:43;;;;;;;13.68;5.70;;;12.30;85.30;;;;;;4998633;28;20046;-52
2021/06/23 00:30:10;;;;;;;13.35;5.65;;;12.30;85.20;;;;;;4993971;28;20466;-52
2021/06/23 00:32:39;;;;;;;13.25;5.50;;;12.30;85.30;;;;;;5001919;28;20080;-49
2021/06/23 00:35:06;;;;;;;12.60;5.75;;;12.30;85.50;;;;;;4989343;28;20042;-53
2021/06/23 00:37:33;;;;;;;16.00;6.07;;;12.30;85.60;;;;;;4995563;28;20038;-53
2021/06/23 00:39:59;;;;;;;14.30;5.97;;;12.20;85.60;;;;;;4983651;28;20050;-51
2021/06/23 00:42:24;;;;;;;14.75;5.75;;;12.20;85.70;;;;;;4993389;28;20396;-52
2021/06/23 00:44:50;;;;;;;13.15;6.50;;;12.20;85.90;;;;;;4991516;28;20414;-52
2021/06/23 00:47:16;;;;;;;15.13;5.45;;;12.20;85.90;;;;;;4995040;28;20042;-50
2021/06/23 00:49:42;;;;;;;13.70;6.07;;;12.20;86.10;;;;;;4994904;28;20042;-51
2021/06/23 00:52:09;;;;;;;13.07;6.13;;;12.20;86.20;;;;;;4993998;28;20668;-51
2021/06/23 00:54:35;;;;;;;11.63;6.07;;;12.20;86.20;;;;;;5007221;28;20041;-50
2021/06/23 00:57:06;;;;;;;15.30;6.53;;;12.20;86.40;;;;;;5007984;28;20049;-55
2021/06/23 00:59:33;;;;;;;12.68;6.50;;;12.20;86.50;;;;;;4992421;28;20041;-53
2021/06/23 01:02:01;;;;;;;13.73;6.65;;;12.20;86.60;;;;;;4992755;28;20042;-52
2021/06/23 01:04:28;;;;;;;12.38;6.43;;;12.20;86.60;;;;;;4995234;28;20053;-51
2021/06/23 01:06:55;;;;;;;15.25;7.07;;;12.20;86.70;;;;;;4961083;28;20053;-53
2021/06/23 01:09:21;;;;;;;16.92;6.85;;;12.10;86.70;;;;;;4993415;28;20046;-51
2021/06/23 01:12:09;;;;;;;12.25;6.43;;;12.10;86.60;;;;;;4975156;28;20096;-49
2021/06/23 01:14:36;;;;;;;13.90;6.30;;;12.20;87.00;;;;;;4990923;28;20042;-52
2021/06/23 01:17:02;;;;;;;19.15;6.90;;;12.10;86.60;;;;;;4987563;28;20117;-51
2021/06/23 01:19:33;;;;;;;14.38;6.90;;;12.20;86.60;;;;;;5004442;28;20046;-51
2021/06/23 01:21:59;;;;;;;19.27;6.90;;;12.20;86.50;;;;;;4996827;28;20518;-52
2021/06/23 01:24:24;;;;;;;15.23;6.90;;;12.20;86.50;;;;;;5000090;28;20046;-52
2021/06/23 01:26:50;;;;;;;14.52;7.20;;;12.20;86.70;;;;;;4999494;28;20041;-51
2021/06/23 01:29:20;;;;;;;16.35;6.70;;;12.20;86.90;;;;;;4993911;28;20054;-55
2021/06/23 01:31:46;;;;;;;15.68;7.68;;;12.20;87.00;;;;;;5009101;28;20096;-49
2021/06/23 01:34:12;;;;;;;16.85;7.53;;;12.20;86.90;;;;;;5000092;28;20046;-49
2021/06/23 01:36:38;;;;;;;12.35;7.05;;;12.30;87.10;;;;;;4999323;28;20557;-53
2021/06/23 01:39:04;;;;;;;13.35;6.90;;;12.30;87.30;;;;;;4960009;28;20065;-53
2021/06/23 01:41:29;;;;;;;16.15;7.82;;;12.20;87.60;;;;;;4992994;28;20038;-54
2021/06/23 01:43:55;;;;;;;14.25;6.97;;;12.20;88.20;;;;;;5006414;28;20041;-52
2021/06/23 01:46:21;;;;;;;14.32;7.88;;;12.20;88.20;;;;;;4991721;28;20062;-50
2021/06/23 01:48:49;;;;;;;14.95;7.22;;;12.20;88.20;;;;;;4977322;28;20084;-51
2021/06/23 01:51:15;;;;;;;14.43;7.40;;;12.20;88.30;;;;;;5000476;28;20204;-51
2021/06/23 01:53:40;;;;;;;12.98;7.20;;;12.20;88.40;;;;;;4976241;28;20507;-50
2021/06/23 01:56:06;;;;;;;13.40;7.32;;;12.10;88.60;;;;;;4992436;28;20093;-54
2021/06/23 01:58:39;;;;;;;13.68;8.10;;;12.10;88.90;;;;;;5004271;28;20418;-53
2021/06/23 02:01:26;;;;;;;15.85;8.43;;;12.10;89.30;;;;;;4999399;28;20050;-50
2021/06/23 02:03:55;;;;;;;16.13;8.55;;;12.10;90.00;;;;;;4985847;28;20046;-51
2021/06/23 02:06:48;;;;;;;15.63;7.88;;;12.10;90.20;;;;;;5004961;28;20042;-51
2021/06/23 02:09:35;;;;;;;17.25;8.40;;;12.10;90.20;;;;;;5008511;28;20050;-54
2021/06/23 02:12:23;;;;;;;12.23;8.13;;;12.00;90.40;;;;;;5014937;28;20040;-55
2021/06/23 02:14:51;;;;;;;17.05;8.13;;;12.00;90.70;;;;;;5012570;28;20045;-52
2021/06/23 02:17:17;;;;;;;16.77;8.02;;;12.00;90.40;;;;;;4993820;28;20127;-51
2021/06/23 02:19:47;;;;;;;15.73;8.32;;;12.00;90.70;;;;;;5011295;28;20069;-54
2021/06/23 02:22:18;;;;;;;15.07;8.30;;;12.10;90.80;;;;;;5012314;28;20398;-49
2021/06/23 02:24:47;;;;;;;14.30;8.77;;;12.00;90.80;;;;;;5009313;28;20038;-53
2021/06/23 02:27:13;;;;;;;13.23;8.95;;;12.00;90.90;;;;;;4977313;28;20073;-49
2021/06/23 02:29:41;;;;;;;14.85;9.02;;;12.00;91.00;;;;;;4978131;28;20092;-49
2021/06/23 02:32:12;;;;;;;18.85;8.93;;;12.00;91.10;;;;;;5014108;28;20046;-48
2021/06/23 02:34:41;;;;;;;19.58;9.10;;;12.00;91.10;;;;;;5012904;28;20046;-52
2021/06/23 02:37:10;;;;;;;17.25;9.30;;;11.90;91.20;;;;;;5008777;28;20494;-54
2021/06/23 02:39:37;;;;;;;14.68;9.25;;;11.90;91.10;;;;;;5014797;28;20096;-51
2021/06/23 02:42:04;;;;;;;21.52;9.50;;;11.90;91.30;;;;;;5015476;28;20117;-55
2021/06/23 02:44:30;;;;;;;18.63;9.35;;;11.90;91.70;;;;;;5013817;28;20510;-52
2021/06/23 02:46:55;;;;;;;19.20;10.02;;;11.90;92.00;;;;;;4996983;28;20109;-51
2021/06/23 02:49:23;;;;;;;14.60;8.93;;;11.90;92.00;;;;;;5016491;28;20045;-50
2021/06/23 02:51:49;;;;;;;17.15;9.57;;;11.90;92.00;;;;;;5014985;28;20034;-53
2021/06/23 02:54:15;;;;;;;15.65;9.75;;;11.80;92.00;;;;;;4993970;28;20062;-52
2021/06/23 02:56:41;;;;;;;13.65;9.18;;;11.80;92.10;;;;;;5017486;28;20037;-50
2021/06/23 02:59:10;;;;;;;18.23;10.07;;;11.80;92.20;;;;;;5016060;28;20128;-52
2021/06/23 03:01:35;;;;;;;19.70;9.73;;;11.80;92.10;;;;;;5016170;28;20046;-49
2021/06/23 03:04:02;;;;;;;22.75;10.52;;;11.80;92.10;;;;;;4998998;28;20050;-50
2021/06/23 03:06:28;;;;;;;22.70;11.15;;;11.80;92.20;;;;;;5017710;28;20540;-49
2021/06/23 03:08:54;;;;;;;18.90;9.90;;;11.80;92.30;;;;;;5014876;28;20030;-48
2021/06/23 03:11:19;;;;;;;17.13;11.32;;;11.80;92.50;;;;;;4996888;28;20048;-49
2021/06/23 03:13:47;;;;;;;19.45;10.57;;;11.80;92.60;;;;;;5000635;28;20565;-51
2021/06/23 03:16:13;;;;;;;19.75;10.05;;;11.80;92.70;;;;;;5014242;28;20117;-50
2021/06/23 03:18:39;;;;;;;14.93;9.98;;;11.80;92.80;;;;;;5012769;28;20056;-50
2021/06/23 03:21:06;;;;;;;18.05;10.63;;;11.80;92.80;;;;;;5011734;28;20129;-49
2021/06/23 03:23:32;;;;;;;21.00;11.35;;;11.70;93.10;;;;;;5015199;28;20034;-50
2021/06/23 03:25:58;;;;;;;21.10;10.70;;;11.70;93.10;;;;;;5003822;28;20678;-48
2021/06/23 03:28:24;;;;;;;16.60;10.70;;;11.70;93.00;;;;;;4998890;28;20137;-50
2021/06/23 03:30:51;;;;;;;20.65;10.70;;;11.70;93.10;;;;;;5014223;28;20050;-50
2021/06/23 03:33:17;;;;;;;16.50;10.10;;;11.80;93.10;;;;;;4996914;28;20045;-50
2021/06/23 03:35:43;;;;;;;20.58;10.73;;;11.80;93.50;;;;;;5014589;28;20044;-49
2021/06/23 03:38:09;;;;;;;18.83;9.60;;;11.70;93.20;;;;;;5013944;28;20045;-50
2021/06/23 03:40:35;;;;;;;17.35;10.13;;;11.70;93.30;;;;;;4997779;28;20041;-53
2021/06/23 03:43:01;;;;;;;21.88;10.00;;;11.70;93.30;;;;;;4980405;28;20057;-51
2021/06/23 03:45:27;;;;;;;18.48;10.95;;;11.70;93.40;;;;;;5018683;28;20037;-52
2021/06/23 03:47:53;;;;;;;17.95;10.50;;;11.70;93.50;;;;;;5023259;28;20038;-50
2021/06/23 03:50:19;;;;;;;20.58;10.10;;;11.70;93.50;;;;;;5013978;28;20038;-50
2021/06/23 03:52:47;;;;;;;18.70;9.68;;;11.70;93.50;;;;;;5013662;28;20065;-50
2021/06/23 03:55:20;;;;;;;18.67;9.65;;;11.70;93.60;;;;;;5013871;28;20041;-48
2021/06/23 03:57:49;;;;;;;18.38;10.32;;;11.70;93.60;;;;;;5006237;28;20567;-54
2021/06/23 04:00:16;;;;;;;16.13;10.32;;;11.70;93.60;;;;;;5009009;28;20490;-49
2021/06/23 04:02:41;;;;;;;16.05;10.00;;;11.70;93.50;;;;;;5026529;28;20062;-50
2021/06/23 04:05:12;;;;;;;20.30;10.27;;;11.70;93.50;;;;;;5008880;28;20049;-50
2021/06/23 04:07:38;;;;;;;16.45;9.57;;;11.70;93.60;;;;;;5008289;28;20518;-51
2021/06/23 04:10:05;;;;;;;17.23;10.00;;;11.70;93.60;;;;;;5005383;28;20049;-53
2021/06/23 04:12:35;;;;;;;14.40;9.40;;;11.70;93.50;;;;;;5000184;28;20034;-51
2021/06/23 04:15:05;;;;;;;18.88;9.23;;;11.70;93.60;;;;;;5022713;28;20050;-51
2021/06/23 04:17:31;;;;;;;16.50;9.07;;;11.70;93.60;;;;;;5026447;28;20033;-48
2021/06/23 04:19:57;;;;;;;17.27;9.32;;;11.70;93.70;;;;;;5012876;28;20042;-50
2021/06/23 04:22:24;;;;;;;20.17;9.35;;;11.70;93.70;;;;;;4999597;28;20053;-51
2021/06/23 04:24:54;;;;;;;16.00;9.00;;;11.70;93.70;;;;;;5005636;28;20065;-51
2021/06/23 04:27:21;;;;;;;21.27;10.10;;;11.70;93.60;;;;;;5005285;28;20070;-52
2021/06/23 04:29:50;;;;;;;14.77;9.43;;;11.70;93.70;;;;;;5012966;28;20066;-52
2021/06/23 04:32:16;;;;;;;20.60;10.48;;;11.70;93.80;;;;;;5013927;28;20518;-50
2021/06/23 04:34:42;;;;;;;16.38;9.38;;;11.70;93.80;;;;;;5015607;28;20144;-48
2021/06/23 04:37:08;;;;;;;17.85;9.55;;;11.80;93.80;;;;;;5013062;28;20373;-49
2021/06/23 04:39:34;;;;;;;16.35;9.55;;;11.70;93.80;;;;;;5001401;28;20057;-52
2021/06/23 04:42:00;;;;;;;19.75;9.40;;;11.80;93.90;;;;;;5014114;28;20033;-53
2021/06/23 04:44:26;;;;;;;16.30;9.27;;;11.80;93.80;;;;;;5008664;28;20054;-51
2021/06/23 04:46:55;;;;;;;16.02;9.07;;;11.80;93.90;;;;;;5012466;28;20366;-50
2021/06/23 04:49:22;;;;;;;19.63;9.60;;;11.80;93.80;;;;;;4979529;28;20069;-52
2021/06/23 04:51:49;;;;;;;15.55;9.02;;;11.90;93.90;;;;;;5011964;28;20119;-53
2021/06/23 04:54:15;;;;;;;17.20;9.15;;;11.90;93.80;;;;;;5010755;28;20067;-50
2021/06/23 04:56:40;;;;;;;14.27;9.27;;;11.90;93.90;;;;;;5011804;28;20041;-51
2021/06/23 04:59:06;;;;;;;15.23;8.52;;;11.90;93.90;;;;;;5012560;28;20509;-49
2021/06/23 05:01:32;;;;;;;14.52;8.90;;;12.00;93.90;;;;;;5012275;28;20042;-52
2021/06/23 05:03:59;;;;;;;15.98;9.25;;;12.00;94.00;;;;;;4994215;28;20049;-49
2021/06/23 05:06:25;;;;;;;14.75;9.32;;;12.00;94.00;;;;;;5014790;28;20068;-53
2021/06/23 05:08:51;;;;;;;15.95;8.60;;;12.10;94.00;;;;;;5018778;28;20041;-54
2021/06/23 05:11:16;;;;;;;16.40;8.60;;;12.10;94.10;;;;;;4995397;28;20141;-50
2021/06/23 05:13:42;;;;;;;15.75;8.35;;;12.10;94.10;;;;;;5015748;28;20494;-52
2021/06/23 05:16:08;;;;;;;16.98;8.63;;;12.10;94.00;;;;;;5011130;28;20510;-52
2021/06/23 05:18:35;;;;;;;15.07;8.55;;;12.10;93.90;;;;;;5011712;28;20495;-52
2021/06/23 05:21:02;;;;;;;12.45;7.80;;;12.10;93.90;;;;;;5011817;28;20057;-51
2021/06/23 05:23:28;;;;;;;15.35;9.10;;;12.20;93.90;;;;;;4997276;28;20092;-49
2021/06/23 05:25:55;;;;;;;16.33;8.25;;;12.20;93.80;;;;;;5011020;28;20033;-49
2021/06/23 05:28:20;;;;;;;17.17;9.30;;;12.20;93.80;;;;;;5003735;28;20041;-50
2021/06/23 05:30:47;;;;;;;14.25;8.70;;;12.20;93.80;;;;;;5012225;28;20437;-54
2021/06/23 05:33:13;;;;;;;19.27;8.98;;;12.30;94.00;;;;;;5011423;28;20136;-52
2021/06/23 05:35:38;;;;;;;16.08;8.57;;;12.30;93.90;;;;;;5012760;28;20201;-51
2021/06/23 05:38:04;;;;;;;16.50;8.80;;;12.30;93.80;;;;;;5023737;28;20044;-49
2021/06/23 05:40:30;;;;;;;15.82;8.57;;;12.30;93.90;;;;;;5011985;28;20042;-51
2021/06/23 05:42:56;;;;;;;13.90;9.07;;;12.30;93.80;;;;;;4977392;28;20358;-53
2021/06/23 05:45:22;;;;;;;14.52;8.60;;;12.40;93.90;;;;;;5009371;28;20034;-50
2021/06/23 05:47:47;;;;;;;16.90;8.05;;;12.50;93.90;;;;;;5011234;28;20030;-52
2021/06/23 05:50:17;;;;;;;12.85;7.75;;;12.50;93.80;;;;;;5017777;28;20482;-54
2021/06/23 05:52:43;;;;;;;17.38;8.40;;;12.50;93.70;;;;;;5017731;28;20046;-53
2021/06/23 05:55:09;;;;;;;16.90;7.80;;;12.60;93.70;;;;;;5010603;28;20107;-52
2021/06/23 05:57:35;;;;;;;17.27;8.18;;;12.60;93.70;;;;;;5011670;28;20123;-51
2021/06/23 06:00:04;;;;;;;11.05;7.70;;;12.70;93.50;;;;;;4993242;28;20180;-54
2021/06/23 06:02:30;;;;;;;15.18;7.47;;;12.70;93.50;;;;;;5011481;28;20030;-53
2021/06/23 06:04:55;;;;;;;15.88;7.85;;;12.70;93.50;;;;;;5012465;28;20042;-54
2021/06/23 06:07:22;;;;;;;16.50;7.45;;;12.80;93.50;;;;;;5008375;28;20506;-53
2021/06/23 06:09:47;;;;;;;14.38;7.50;;;12.80;93.30;;;;;;5010662;28;20117;-54
2021/06/23 06:12:13;;;;;;;12.70;6.70;;;12.90;93.10;;;;;;5010985;28;20042;-53
2021/06/23 06:14:39;;;;;;;14.32;6.75;;;12.90;93.00;;;;;;5017039;28;20038;-54
2021/06/23 06:17:04;;;;;;;16.45;7.70;;;12.90;92.80;;;;;;5004412;28;20038;-49
2021/06/23 06:19:30;;;;;;;12.23;6.57;;;12.90;92.80;;;;;;5010755;28;20049;-51
2021/06/23 06:21:56;;;;;;;13.88;6.85;;;12.90;92.60;;;;;;5015033;28;20510;-52
2021/06/23 06:24:22;;;;;;;15.55;6.88;;;12.90;92.50;;;;;;5013410;28;20034;-54
2021/06/23 06:26:48;;;;;;;12.77;6.20;;;12.90;92.60;;;;;;5012411;28;20034;-52
2021/06/23 06:29:13;;;;;;;17.90;7.85;;;13.00;92.70;;;;;;5012805;28;20053;-52
2021/06/23 06:31:39;;;;;;;15.85;7.10;;;13.10;92.30;;;;;;5010921;28;20061;-52
2021/06/23 06:34:04;;;;;;;17.17;6.80;;;13.10;92.40;;;;;;5003985;28;20061;-52
2021/06/23 06:36:31;;;;;;;14.73;7.47;;;13.10;92.50;;;;;;5018183;28;20042;-55
2021/06/23 06:38:57;;;;;;;14.05;6.90;;;13.20;92.70;;;;;;5010868;28;20041;-53
2021/06/23 06:41:22;;;;;;;14.60;6.82;;;13.20;92.80;;;;;;5011172;28;20048;-54
2021/06/23 06:43:48;;;;;;;18.60;7.03;;;13.30;92.80;;;;;;5010936;28;20048;-52
2021/06/23 06:46:14;;;;;;;10.82;7.32;;;13.40;92.90;;;;;;5010083;28;20034;-55
2021/06/23 06:48:40;;;;;;;15.55;6.97;;;13.50;92.80;;;;;;5009335;28;20041;-53
2021/06/23 06:51:05;;;;;;;12.73;7.47;;;13.50;92.90;;;;;;5018194;28;20172;-49
2021/06/23 06:53:31;;;;;;;18.42;7.25;;;13.50;92.70;;;;;;5010347;28;20486;-53
2021/06/23 06:55:57;;;;;;;13.13;5.80;;;13.60;92.30;;;;;;4992296;28;20495;-54
2021/06/23 06:58:23;;;;;;;12.88;6.50;;;13.80;92.10;;;;;;5004519;28;20395;-51
2021/06/23 07:00:48;;;;;;;12.07;6.30;;;13.80;92.00;;;;;;5009853;28;20450;-52
2021/06/23 07:03:14;;;;;;;12.25;6.30;;;13.90;90.90;;;;;;4993050;28;20057;-53
2021/06/23 07:05:40;;;;;;;13.80;5.35;;;14.00;91.20;;;;;;5009698;28;20095;-52
2021/06/23 07:08:06;;;;;;;14.55;6.22;;;14.00;91.40;;;;;;4998257;28;20042;-55
2021/06/23 07:10:32;;;;;;;12.85;5.32;;;14.20;91.40;;;;;;5016834;28;20041;-54
2021/06/23 07:12:58;;;;;;;17.40;6.28;;;14.30;90.40;;;;;;5015837;28;20121;-55
2021/06/23 07:15:23;;;;;;;15.43;6.03;;;14.40;89.30;;;;;;5008293;28;20120;-54
2021/06/23 07:17:51;;;;;;;13.07;6.00;;;14.50;87.70;;;;;;5018425;28;20081;-53
2021/06/23 07:20:18;;;;;;;17.13;6.00;;;14.60;86.70;;;;;;5014161;28;20414;-54
2021/06/23 07:22:44;;;;;;;13.35;5.93;;;14.50;88.90;;;;;;4996669;28;20411;-50
2021/06/23 07:25:10;;;;;;;11.85;5.68;;;14.50;90.00;;;;;;5016861;28;20521;-54
2021/06/23 07:27:37;;;;;;;15.30;5.60;;;14.50;89.20;;;;;;4994932;28;20442;-53
2021/06/23 07:30:04;;;;;;;14.63;6.20;;;14.40;88.90;;;;;;4994283;28;20053;-51
2021/06/23 07:32:43;;;;;;;12.00;5.40;;;14.30;89.80;;;;;;5014155;28;20423;-54
2021/06/23 07:37:58;;;;;;;11.70;4.95;;;14.40;87.10;;;;;;5013266;28;20074;-52
2021/06/23 07:40:42;;;;;;;10.43;4.97;;;14.30;88.90;;;;;;5013961;28;20069;-52
2021/06/23 07:43:11;;;;;;;13.98;5.13;;;14.30;88.50;;;;;;4992716;28;20057;-50
2021/06/23 07:45:37;;;;;;;11.07;4.80;;;14.60;87.10;;;;;;4988087;28;20096;-51
2021/06/23 07:48:07;;;;;;;11.63;4.57;;;14.80;88.00;;;;;;4997120;28;20065;-53
2021/06/23 07:50:39;;;;;;;9.77;4.10;;;15.00;86.50;;;;;;5012169;28;20503;-51
2021/06/23 07:53:15;;;;;;;10.88;4.28;;;15.20;84.70;;;;;;5013827;28;20389;-51
2021/06/23 07:55:46;;;;;;;12.55;4.78;;;15.40;82.80;;;;;;5013631;28;20052;-53
2021/06/23 08:02:06;;;;;;;14.55;4.60;;;15.10;85.40;;;;;;5013719;28;20127;-48
2021/06/23 08:09:24;;;;;;;11.43;4.20;;;15.00;83.30;;;;;;5014515;28;20136;-50
2021/06/23 08:11:54;;;;;;;9.90;3.97;;;14.80;85.30;;;;;;4998684;28;20553;-52
2021/06/23 08:14:20;;;;;;;9.88;3.95;;;14.80;86.10;;;;;;5011701;28;20120;-54
2021/06/23 08:16:48;;;;;;;9.40;4.10;;;14.90;84.60;;;;;;4993596;28;20454;-53
2021/06/23 08:19:14;;;;;;;9.98;3.88;;;14.80;85.40;;;;;;5012947;28;20054;-51
2021/06/23 08:21:39;;;;;;;11.38;4.00;;;14.90;85.60;;;;;;5012604;28;20072;-53
2021/06/23 08:24:05;;;;;;;9.63;3.53;;;14.80;85.70;;;;;;5012121;28;20030;-52
2021/06/23 08:26:31;;;;;;;9.48;3.72;;;14.80;85.00;;;;;;5012226;28;20042;-52
2021/06/23 08:28:58;;;;;;;15.52;3.88;;;14.90;83.10;;;;;;5012108;28;20092;-55
2021/06/23 08:31:23;;;;;;;10.15;4.03;;;14.80;83.90;;;;;;5012619;28;20042;-54
2021/06/23 08:33:49;;;;;;;8.50;3.50;;;14.80;84.20;;;;;;5012327;28;20089;-54
2021/06/23 08:36:15;;;;;;;11.02;3.80;;;14.80;83.90;;;;;;4994980;28;20061;-49
2021/06/23 08:38:40;;;;;;;11.27;3.83;;;14.80;85.20;;;;;;5012750;28;20038;-54
2021/06/23 08:41:06;;;;;;;11.13;3.83;;;14.90;83.40;;;;;;5020765;28;20041;-54
2021/06/23 08:43:32;;;;;;;11.50;3.13;;;15.10;82.20;;;;;;5018491;28;20064;-54
2021/06/23 08:46:00;;;;;;;11.30;3.90;;;15.00;83.00;;;;;;5017444;28;20513;-55
2021/06/23 08:48:27;;;;;;;9.23;3.47;;;15.10;82.10;;;;;;5014395;28;20107;-54
2021/06/23 08:50:53;;;;;;;11.98;3.53;;;15.00;83.50;;;;;;5012688;28;20375;-52
2021/06/23 08:53:19;;;;;;;10.98;3.40;;;15.10;84.10;;;;;;5010925;28;20136;-55
2021/06/23 08:55:45;;;;;;;12.05;4.13;;;15.20;81.00;;;;;;5011639;28;20509;-54
2021/06/23 08:58:12;;;;;;;10.40;2.72;;;15.10;81.80;;;;;;5023658;28;20517;-55
2021/06/23 09:00:37;;;;;;;9.15;2.60;;;15.10;81.70;;;;;;5012368;28;20042;-53
2021/06/23 09:03:06;;;;;;;8.65;2.70;;;15.10;80.10;;;;;;5009568;28;20175;-55
2021/06/23 09:05:53;;;;;;;10.20;2.55;;;15.20;81.20;;;;;;4993936;28;20117;-51
2021/06/23 09:08:29;;;;;;;7.25;2.72;;;15.20;79.90;;;;;;4992828;28;20109;-53
2021/06/23 09:10:56;;;;;;;10.02;3.35;;;15.20;80.10;;;;;;5019610;28;20445;-53
2021/06/23 09:13:23;;;;;;;12.27;3.35;;;15.20;80.50;;;;;;5031775;28;20048;-51
2021/06/23 09:15:55;;;;;;;11.00;3.33;;;15.30;80.50;;;;;;5019621;28;20471;-50
2021/06/23 09:18:23;;;;;;;14.15;3.50;;;15.30;82.20;;;;;;4998060;28;20390;-52
2021/06/23 09:21:11;;;;;;;7.18;2.80;;;15.30;81.40;;;;;;5010339;28;20100;-52
2021/06/23 09:24:07;;;;;;;8.80;3.10;;;15.40;80.50;;;;;;4974312;28;20052;-53
2021/06/23 09:26:37;;;;;;;6.65;3.15;;;15.60;81.50;;;;;;5006882;28;20046;-52
2021/06/23 09:29:10;;;;;;;6.50;2.60;;;15.70;81.10;;;;;;5011392;28;20551;-53
2021/06/23 09:32:00;;;;;;;8.23;2.63;;;15.90;80.30;;;;;;5011438;28;20045;-53
2021/06/23 09:34:32;;;;;;;7.53;2.75;;;16.20;74.70;;;;;;4991111;28;20045;-52
2021/06/23 09:36:58;;;;;;;6.35;2.75;;;16.30;77.10;;;;;;5011228;28;20030;-55
2021/06/23 09:39:29;;;;;;;8.85;2.38;;;16.30;77.30;;;;;;5010247;28;20111;-54
2021/06/23 09:41:56;;;;;;;6.90;2.35;;;16.50;75.60;;;;;;4997705;28;20434;-54
2021/06/23 09:44:23;;;;;;;12.02;2.83;;;16.60;74.20;;;;;;5010945;28;20045;-53
2021/06/23 09:46:51;;;;;;;7.30;2.47;;;16.80;76.20;;;;;;5011694;28;20037;-51
2021/06/23 09:49:25;;;;;;;7.13;2.50;;;17.00;75.80;;;;;;5011672;28;20049;-53
2021/06/23 09:51:56;;;;;;;10.32;2.65;;;17.20;75.30;;;;;;5010900;28;20185;-54
2021/06/23 09:54:24;;;;;;;9.05;2.67;;;17.30;72.20;;;;;;5010795;28;20639;-55
2021/06/23 09:56:50;;;;;;;6.72;2.83;;;17.30;73.30;;;;;;5010765;28;20042;-55
2021/06/23 10:02:02;;;;;;;7.18;2.70;;;17.40;72.70;;;;;;5011741;28;20049;-53
2021/06/23 10:04:36;;;;;;;9.07;2.60;;;17.50;72.80;;;;;;5011087;28;20049;-55
2021/06/23 10:07:03;;;;;;;7.47;2.70;;;17.70;67.70;;;;;;5010972;28;20497;-51
2021/06/23 10:09:31;;;;;;;9.48;2.65;;;17.60;68.30;;;;;;5011767;28;20042;-51
2021/06/23 10:12:08;;;;;;;9.27;2.75;;;17.70;70.50;;;;;;5021539;28;20108;-54
2021/06/23 10:14:47;;;;;;;7.25;2.60;;;17.80;69.40;;;;;;5010091;28;20062;-55
2021/06/23 10:17:13;;;;;;;12.05;2.75;;;17.90;69.60;;;;;;5020515;28;20040;-52
2021/06/23 10:19:41;;;;;;;8.32;2.30;;;17.90;68.70;;;;;;5010508;28;20116;-54
2021/06/23 10:22:08;;;;;;;7.22;2.42;;;17.90;66.00;;;;;;5011137;28;20401;-54
2021/06/23 10:24:34;;;;;;;10.57;2.30;;;17.80;67.80;;;;;;5010674;28;20077;-54
2021/06/23 10:27:06;;;;;;;6.63;2.42;;;17.80;66.00;;;;;;5010545;28;20402;-54
2021/06/23 10:29:34;;;;;;;7.88;2.80;;;17.50;68.40;;;;;;4986024;28;20065;-54
2021/06/23 10:32:02;;;;;;;8.80;2.47;;;17.40;69.10;;;;;;5009278;28;20506;-54
2021/06/23 10:34:29;;;;;;;7.00;2.30;;;17.30;70.90;;;;;;5010556;28;20402;-55
2021/06/23 10:36:55;;;;;;;10.63;2.47;;;17.30;67.30;;;;;;4994038;28;20409;-54
2021/06/23 10:39:23;;;;;;;8.05;2.95;;;17.10;69.00;;;;;;5010584;28;20581;-54
2021/06/23 10:41:52;;;;;;;7.97;2.42;;;17.00;68.80;;;;;;5011478;28;20066;-54
2021/06/23 10:44:21;;;;;;;6.28;2.25;;;17.00;70.10;;;;;;4992517;28;20498;-54
2021/06/23 10:46:54;;;;;;;4.10;1.90;;;17.00;68.70;;;;;;5010984;28;20091;-55
2021/06/23 10:49:41;;;;;;;7.50;2.30;;;17.00;66.90;;;;;;4992062;28;20038;-52
2021/06/23 10:52:26;;;;;;;7.10;2.58;;;16.90;69.90;;;;;;5022609;28;20069;-55
2021/06/23 10:54:57;;;;;;;6.72;2.75;;;16.90;72.60;;;;;;5004341;28;20405;-54
2021/06/23 10:57:47;;;;;;;8.48;2.95;;;16.80;72.50;;;;;;5014781;28;20057;-54
2021/06/23 11:00:17;;;;;;;6.67;2.80;;;16.80;73.20;;;;;;5007554;28;20077;-54
2021/06/23 11:02:48;;;;;;;6.47;2.63;;;16.70;73.60;;;;;;4996288;28;20097;-55
2021/06/23 11:05:36;;;;;;;9.90;2.92;;;16.80;73.30;;;;;;4998868;28;20475;-53
2021/06/23 11:08:24;;;;;;;8.65;2.80;;;16.80;72.60;;;;;;5014432;28;20034;-52
2021/06/23 11:10:51;;;;;;;11.57;3.30;;;16.70;73.90;;;;;;4993666;28;20138;-54
2021/06/23 11:13:23;;;;;;;10.52;3.03;;;16.70;72.00;;;;;;4993581;28;20459;-53
2021/06/23 11:15:50;;;;;;;9.98;3.13;;;16.50;73.10;;;;;;5006451;28;20483;-53
2021/06/23 11:18:21;;;;;;;9.02;3.08;;;16.40;73.90;;;;;;5014223;28;20111;-55
2021/06/23 11:20:48;;;;;;;8.50;3.30;;;16.50;73.90;;;;;;5014110;28;20092;-54
2021/06/23 11:23:48;;;;;;;10.73;3.28;;;16.80;72.40;;;;;;5014231;28;20034;-54
2021/06/23 11:26:38;;;;;;;11.15;2.90;;;16.60;73.70;;;;;;5008276;28;20038;-55
2021/06/23 11:29:09;;;;;;;10.48;3.20;;;16.60;75.30;;;;;;5015294;28;20046;-54
2021/06/23 11:31:49;;;;;;;11.00;3.28;;;16.70;75.20;;;;;;5013978;28;20120;-54
2021/06/23 11:34:39;;;;;;;12.00;3.40;;;16.70;72.50;;;;;;4996006;28;20045;-55
2021/06/23 11:37:12;;;;;;;11.98;3.10;;;16.80;72.50;;;;;;5010410;28;20050;-53
2021/06/23 11:39:39;;;;;;;10.32;3.17;;;16.70;73.00;;;;;;4997600;28;20499;-53
2021/06/23 11:42:06;;;;;;;8.85;2.83;;;16.60;73.70;;;;;;5015559;28;20077;-53
2021/06/23 11:44:34;;;;;;;10.68;3.00;;;16.70;73.00;;;;;;5012721;28;20038;-52
2021/06/23 11:47:01;;;;;;;12.90;3.13;;;16.70;72.70;;;;;;5013310;28;20498;-50
2021/06/23 11:49:28;;;;;;;9.20;3.42;;;16.80;71.90;;;;;;5012729;28;20038;-54
2021/06/23 11:51:53;;;;;;;8.23;3.10;;;16.80;71.10;;;;;;5013276;28;20609;-51
2021/06/23 11:54:19;;;;;;;10.45;3.65;;;16.70;72.20;;;;;;5012523;28;20109;-52
2021/06/23 11:56:44;;;;;;;15.90;3.70;;;16.60;72.90;;;;;;5015211;28;20037;-52
2021/06/23 11:59:10;;;;;;;10.80;3.30;;;16.60;72.80;;;;;;5012749;28;20064;-53
2021/06/23 12:01:36;;;;;;;8.68;3.28;;;16.50;74.10;;;;;;5013556;28;20061;-54
2021/06/23 12:04:02;;;;;;;8.98;3.22;;;16.40;74.50;;;;;;5013826;28;20113;-54
2021/06/23 12:06:28;;;;;;;11.95;3.33;;;16.40;74.80;;;;;;5012522;28;20048;-51
2021/06/23 12:08:54;;;;;;;9.98;3.35;;;16.50;74.20;;;;;;4998219;28;20338;-53
2021/06/23 12:11:20;;;;;;;8.02;3.20;;;16.60;74.30;;;;;;5016207;28;20490;-55
2021/06/23 12:13:46;;;;;;;8.90;3.17;;;16.50;73.70;;;;;;5014634;28;20057;-54
2021/06/23 12:16:12;;;;;;;7.32;3.08;;;16.70;72.80;;;;;;5012500;28;20050;-55
2021/06/23 12:18:38;;;;;;;9.65;3.35;;;16.90;71.70;;;;;;5014301;28;20091;-53
2021/06/23 12:21:04;;;;;;;8.90;3.63;;;16.90;72.80;;;;;;4990268;28;20041;-54
2021/06/23 12:23:30;;;;;;;10.80;3.65;;;16.90;72.70;;;;;;5013746;28;20411;-53
2021/06/23 12:25:57;;;;;;;11.82;3.63;;;17.10;72.40;;;;;;5006941;28;20061;-53
2021/06/23 12:28:24;;;;;;;8.93;3.17;;;17.30;70.10;;;;;;4995296;28;20037;-54
2021/06/23 12:30:50;;;;;;;10.73;3.17;;;17.30;69.30;;;;;;5004577;28;20128;-55
2021/06/23 12:33:16;;;;;;;7.03;2.85;;;17.20;69.60;;;;;;5012832;28;20222;-52
2021/06/23 12:35:45;;;;;;;11.05;3.17;;;17.20;70.00;;;;;;5016083;28;20033;-53
2021/06/23 12:38:13;;;;;;;9.52;3.22;;;17.20;70.20;;;;;;5017540;28;20092;-55
2021/06/23 12:40:40;;;;;;;13.40;3.70;;;17.20;71.70;;;;;;5013388;28;20041;-53
2021/06/23 12:43:15;;;;;;;10.60;3.22;;;17.30;70.00;;;;;;5004660;28;20068;-53
2021/06/23 12:45:43;;;;;;;10.85;3.42;;;17.30;69.30;;;;;;4994092;28;20045;-52
2021/06/23 12:48:09;;;;;;;8.82;3.13;;;17.30;70.40;;;;;;5012344;28;20038;-52
2021/06/23 12:50:36;;;;;;;10.10;3.60;;;17.30;69.90;;;;;;5014587;28;20046;-53
2021/06/23 12:53:01;;;;;;;11.93;3.50;;;17.30;69.60;;;;;;5012847;28;20405;-54
2021/06/23 12:55:27;;;;;;;8.70;2.90;;;17.50;69.50;;;;;;5011554;28;20037;-53
2021/06/23 12:57:53;;;;;;;10.90;3.78;;;17.80;68.10;;;;;;5011993;28;20042;-53